Home > Products > Valid Products > TAF

000
FTUS43 KDLH 231200 AAA
TAFHYR
TAF AMD
KHYR 231252Z 2313/2412 19007KT 6SM -DZ BR SCT008 OVC016
      TEMPO 2314/2318 4SM BR BKN008
     FM231800 22008KT P6SM BKN030
     FM232200 VRB04KT P6SM SCT030=



000
FTUS43 KDLH 231200 AAA
TAFDLH
TAF AMD
KDLH 231250Z 2313/2412 19007KT 5SM -DZ BR OVC008
      TEMPO 2313/2316 2SM BR OVC004
     FM231800 23008KT P6SM SKC
     FM232200 VRB04KT P6SM SKC=



000
FTUS43 KDLH 231100 RRA
TAFBRD
TAF
KBRD 231143Z 2312/2412 21008KT 3SM BR OVC006
      TEMPO 2312/2314 1/2SM FG OVC002
     FM231500 23010KT P6SM SKC
     FM240000 19003KT P6SM SKC=



000
FTUS43 KDLH 231100 RRA
TAFHYR
TAF
KHYR 231143Z 2312/2412 19007KT 6SM -DZ BR SCT008 OVC022
      TEMPO 2312/2316 4SM -RA BR BKN008
     FM231800 22008KT P6SM BKN030
     FM232200 VRB04KT P6SM SCT030=



000
FTUS43 KDLH 231100 RRA
TAFINL
TAF
KINL 231143Z 2312/2412 20007KT P6SM SCT005 OVC060
      TEMPO 2312/2314 4SM BR BKN004
     FM231500 22009KT P6SM SKC
     FM240000 19004KT P6SM SKC=



000
FTUS43 KDLH 231100 RRA
TAFDLH
TAF
KDLH 231143Z 2312/2412 19007KT 4SM -DZ BR SCT003 OVC015
      TEMPO 2312/2316 2SM BR BKN005
     FM231800 23008KT P6SM SKC
     FM232200 VRB04KT P6SM SKC=



000
FTUS43 KDLH 231100 AAA
TAFINL
TAF AMD
KINL 231126Z 2311/2406 20007KT 6SM BR OVC004
      TEMPO 2312/2314 BKN008
     FM231400 22009KT P6SM SKC
     FM240000 19004KT P6SM SKC=



000
FTUS43 KDLH 231000 AAC
TAFDLH
TAF AMD
KDLH 231031Z 2311/2406 19005KT 4SM BR SCT004 OVC015
      TEMPO 2311/2315 2SM BR BKN008
     FM231800 23008KT P6SM SCT025
     FM240000 18004KT P6SM SKC=



000
FTUS43 KDLH 230900 AAB
TAFBRD
TAF AMD
KBRD 230909Z 2309/2406 20006KT 6SM BR OVC006
      TEMPO 2310/2314 1/2SM FG OVC002
     FM231400 22010KT P6SM FEW030
     FM240000 19004KT P6SM SKC=



000
FTUS43 KDLH 230900 AAB
TAFDLH
TAF AMD
KDLH 230907Z 2309/2406 17008KT 6SM -RA BR SCT012 OVC025
     FM231100 19005KT 5SM BR SCT004 OVC012
      TEMPO 2311/2315 2SM BR BKN008
     FM231600 23008KT P6SM SCT025
     FM240000 18004KT P6SM SKC=



000
FTUS43 KDLH 230800 AAA
TAFHYR
TAF AMD
KHYR 230809Z 2308/2406 17007KT 6SM -RA SCT015 OVC030
      TEMPO 2308/2312 5SM RA OVC012
     FM231200 20005KT 4SM BR SCT004 OVC012
     FM231800 22006KT P6SM SCT020
     FM240000 19003KT P6SM SCT015=



000
FTUS43 KDLH 230800 AAA
TAFHYR
TAF AMD
KHYR 230809Z 2308/2406 17007KT 6SM -RA SCT015 OVC030
      TEMPO 2308/2312 5SM RA OVC012
     FM231200 20005KT 4SM BR SCT004 OVC012
     FM231800 22006KT P6SM SCT020
     FM240000 19003KT P6SM SCT015=



000
FTUS43 KDLH 230800 AAA
TAFBRD
TAF AMD
KBRD 230802Z 2308/2406 18012KT 6SM -DZ VCSH OVC009
     FM231000 20006KT P6SM SCT004 BKN060
      TEMPO 2310/2314 2SM BR OVC004
     FM231600 22010KT P6SM SKC
     FM240000 19004KT P6SM SKC=



000
FTUS43 KDLH 230700 AAA
TAFDLH
TAF AMD
KDLH 230759Z 2308/2406 18008KT 6SM -DZ BR SCT015 OVC025
      TEMPO 2308/2312 3SM -RA BR OVC007
     FM231200 21006KT 5SM BR SCT007 BKN025
     FM231600 23008KT P6SM SCT025
     FM240000 18004KT P6SM SKC=



000
FTUS43 KDLH 230500 RRA
TAFINL
TAF
KINL 230542Z 2306/2406 18009KT P6SM VCSH SCT015 OVC025
      TEMPO 2306/2310 -RA BKN011
     FM231200 20007KT P6SM SCT025 BKN060
     FM231800 24008KT P6SM SCT035=



000
FTUS43 KDLH 230500 RRA
TAFBRD
TAF
KBRD 230542Z 2306/2406 18012KT 6SM -DZ VCSH SCT010 OVC025
      TEMPO 2306/2310 3SM -RA BR BKN008
     FM231000 20006KT P6SM SCT020 BKN060
     FM231500 22010KT P6SM SKC=



000
FTUS43 KDLH 230500 RRA
TAFHYR
TAF
KHYR 230542Z 2306/2406 18011KT P6SM VCSH BKN050
     FM230900 17007KT 6SM -RA BR BKN010 OVC050
     FM231500 20004KT 4SM -RA BR BKN010
     FM231800 22005KT P6SM SCT010 BKN030
     FM232200 24005KT P6SM SCT010 BKN040=



000
FTUS43 KDLH 230500 RRA
TAFDLH
TAF
KDLH 230542Z 2306/2406 16009KT P6SM VCSH SCT050 BKN080
     FM230800 18004KT 6SM -RA BR BKN025 OVC040
      TEMPO 2310/2314 3SM -RA BR OVC007
     FM231500 22006KT P6SM SCT015 BKN025
     FM232000 24007KT P6SM SCT035
     FM240000 18005KT P6SM SCT050=



000
FTUS43 KDLH 222300
TAFHYR
TAF
KHYR 222337Z 2300/2324 16010G16KT P6SM SKC
     FM230300 17008KT P6SM VCSH BKN080 WS020/18035KT
     FM230900 17007KT 6SM -RA BKN010 OVC050
     FM231500 20004KT P6SM -RA BKN010
     FM232200 24005KT P6SM SCT010 BKN040=



000
FTUS43 KDLH 222300
TAFBRD
TAF
KBRD 222337Z 2300/2324 16008KT P6SM VCSH SKC WS020/18035KT
     FM230300 18007KT 6SM -RA SCT010 BKN080
     FM230900 20005KT P6SM SCT010 BKN040
     FM231600 23006KT P6SM SKC=



000
FTUS43 KDLH 222300
TAFDLH
TAF
KDLH 222337Z 2300/2324 13008KT P6SM VCTS BKN070CB WS020/18035KT
     FM230300 17006KT P6SM VCSH SCT080 BKN120 WS020/18035KT
     FM230700 18004KT 6SM -RA BR BKN010 OVC035
     FM231500 22008KT P6SM SCT015 BKN025
     FM232000 24007KT P6SM SCT035=



000
FTUS43 KDLH 222300
TAFINL
TAF
KINL 222337Z 2300/2324 19013G20KT P6SM SCT090
     FM230200 17008KT P6SM VCSH SCT035 BKN100 WS020/18035KT
     FM230500 18006KT 6SM -RA BKN010 BKN080
     FM231000 20005KT P6SM OVC015
     FM231800 24008KT P6SM SCT035=



000
FTUS43 KDLH 222000 AAA
TAFDLH
TAF AMD
KDLH 222031Z 2221/2318 16013KT P6SM BKN050 BKN080
      TEMPO 2221/2222 BKN035
     FM222300 15010KT P6SM SCT050 WS020/18035KT
     FM230300 17006KT P6SM VCSH SCT080 BKN120 WS020/18035KT
     FM230700 18004KT 6SM -RA BR SCT010 OVC035
     FM231500 22008KT P6SM SCT035 BKN120=



000
FTUS43 KDLH 222000 AAA
TAFDLH
TAF AMD
KDLH 222031Z 2221/2318 16013KT P6SM BKN050 BKN080
      TEMPO 2221/2222 BKN035
     FM222300 15010KT P6SM SCT050 WS020/18035KT
     FM230300 17006KT P6SM VCSH SCT080 BKN120 WS020/18035KT
     FM230700 18004KT 6SM -RA BR SCT010 OVC035
     FM231500 22008KT P6SM SCT035 BKN120=



000
FTUS43 KDLH 221700
TAFHYR
TAF
KHYR 221732Z 2218/2318 18010G19KT P6SM SCT050
      TEMPO 2218/2222 BKN050
     FM222200 16008KT P6SM SCT080 BKN250
     FM230300 17008KT P6SM VCSH BKN080 WS020/18035KT
     FM230900 17007KT 6SM -RA SCT010 OVC050
     FM231500 20004KT P6SM SCT050=



000
FTUS43 KDLH 221700
TAFDLH
TAF
KDLH 221732Z 2218/2318 16014G22KT P6SM SCT045
      TEMPO 2218/2221 BKN040
     FM222300 15010KT P6SM SCT050 WS020/18035KT
     FM230300 17006KT P6SM VCSH SCT080 BKN120 WS020/18035KT
     FM230700 18004KT 6SM -RA BR SCT010 OVC035
     FM231500 22008KT P6SM SCT035 BKN120=



000
FTUS43 KDLH 221700
TAFBRD
TAF
KBRD 221732Z 2218/2318 17013G24KT P6SM SCT080
     FM230000 17008KT P6SM VCSH SCT035 BKN100 WS020/18035KT
     FM230300 18007KT 6SM -RA SCT010 BKN080
     FM230900 20005KT P6SM SCT080
     FM231500 23006KT P6SM SKC=



000
FTUS43 KDLH 221700
TAFINL
TAF
KINL 221732Z 2218/2318 16013G20KT P6SM SCT040 BKN250
     FM230200 17008KT P6SM VCSH SCT035 BKN100 WS020/18035KT
     FM230500 18006KT 6SM -RA SCT010 BKN080
     FM231000 20005KT P6SM SCT080=



000
FTUS43 KDLH 221700
TAFDLH
TAF
KDLH 221732Z 2218/2318 16014G22KT P6SM SCT045
      TEMPO 2218/2221 BKN040
     FM222300 15010KT P6SM SCT050 WS020/18035KT
     FM230300 17006KT P6SM VCSH SCT080 BKN120 WS020/18035KT
     FM230700 18004KT 6SM -RA BR SCT010 OVC035
     FM231500 22008KT P6SM SCT035 BKN120=



000
FTUS43 KDLH 221700
TAFHYR
TAF
KHYR 221732Z 2218/2318 18010G19KT P6SM SCT050
      TEMPO 2218/2222 BKN050
     FM222200 16008KT P6SM SCT080 BKN250
     FM230300 17008KT P6SM VCSH BKN080 WS020/18035KT
     FM230900 17007KT 6SM -RA SCT010 OVC050
     FM231500 20004KT P6SM SCT050=



000
FTUS43 KDLH 221700
TAFINL
TAF
KINL 221732Z 2218/2318 16013G20KT P6SM SCT040 BKN250
     FM230200 17008KT P6SM VCSH SCT035 BKN100 WS020/18035KT
     FM230500 18006KT 6SM -RA SCT010 BKN080
     FM231000 20005KT P6SM SCT080=



000
FTUS43 KDLH 221700
TAFBRD
TAF
KBRD 221732Z 2218/2318 17013G24KT P6SM SCT080
     FM230000 17008KT P6SM VCSH SCT035 BKN100 WS020/18035KT
     FM230300 18007KT 6SM -RA SCT010 BKN080
     FM230900 20005KT P6SM SCT080
     FM231500 23006KT P6SM SKC=



000
FTUS43 KDLH 221500 AAA
TAFDLH
TAF AMD
KDLH 221520Z 2215/2312 17010G21KT P6SM SKC
     FM222100 13010KT P6SM SCT050 BKN080
     FM230200 12005KT P6SM VCSH BKN035 OVC050
     FM230900 17008KT 6SM -RA SCT010 OVC025=



000
FTUS43 KDLH 221100
TAFHYR
TAF
KHYR 221136Z 2212/2312 16010KT P6SM SKC
     FM221800 16010G18KT P6SM SCT100
     FM222200 16008KT P6SM SCT040 BKN070
     FM230300 17008KT P6SM VCSH OVC035
     FM230900 18010KT 6SM -RA SCT010 OVC025=



000
FTUS43 KDLH 221100
TAFBRD
TAF
KBRD 221136Z 2212/2312 16010G18KT P6SM SCT100
     FM221800 16012G25KT P6SM SCT035 BKN080
     FM222300 16008KT P6SM VCSH SCT020 OVC040
     FM230500 18010KT 6SM -RA SCT008 OVC020=



000
FTUS43 KDLH 221100
TAFINL
TAF
KINL 221136Z 2212/2312 15012KT P6SM SKC
     FM221600 16012G20KT P6SM SCT100
     FM222000 17012G22KT P6SM SCT040 BKN080
     FM222300 17008KT P6SM VCSH SCT020 OVC040
     FM230600 18010KT 6SM -RA SCT008 OVC020=



000
FTUS43 KDLH 221100
TAFDLH
TAF
KDLH 221136Z 2212/2312 15010KT P6SM FEW120
     FM222100 13010KT P6SM SCT050 BKN080
     FM230200 12005KT P6SM VCSH BKN035 OVC050
     FM230900 17008KT 6SM -RA SCT010 OVC025=



000
FTUS43 KDLH 220900 AAA
TAFBRD
TAF AMD
KBRD 220927Z 2209/2306 15010KT P6SM FEW120
     FM221200 16012G18KT P6SM SCT100
     FM221800 16015G25KT P6SM VCSH BKN050
     FM230200 17010KT P6SM -RA SCT025 BKN050=



000
FTUS43 KDLH 220500
TAFDLH
TAF
KDLH 220534Z 2206/2306 12006KT P6SM FEW006
     FM221700 15015KT P6SM SCT250
     FM222100 15013KT P6SM VCSH BKN100
     FM230200 15010KT P6SM VCSH OVC050=



000
FTUS43 KDLH 220500
TAFHYR
TAF
KHYR 220534Z 2206/2306 15005KT P6SM SKC
     FM221600 17012KT P6SM SKC
     FM222200 18007KT P6SM BKN100
     FM230200 18010KT P6SM VCSH BKN070=



000
FTUS43 KDLH 220500
TAFBRD
TAF
KBRD 220534Z 2206/2306 15008KT P6SM SKC
     FM221300 16013G19KT P6SM BKN250
     FM221800 16016G23KT P6SM VCSH BKN050
     FM230200 17010KT P6SM -RA SCT025 BKN050=



000
FTUS43 KDLH 220500
TAFINL
TAF
KINL 220534Z 2206/2306 15009KT P6SM SKC
     FM221400 15012G18KT P6SM BKN250
     FM221800 17013KT P6SM VCSH BKN050 BKN100
     FM230000 17010KT P6SM -RA SCT025 BKN050=



000
FTUS43 KDLH 220500
TAFDLH
TAF
KDLH 220534Z 2206/2306 12006KT P6SM FEW006
     FM221700 15015KT P6SM SCT250
     FM222100 15013KT P6SM VCSH BKN100
     FM230200 15010KT P6SM VCSH OVC050=



000
FTUS43 KDLH 220500
TAFINL
TAF
KINL 220534Z 2206/2306 15009KT P6SM SKC
     FM221400 15012G18KT P6SM BKN250
     FM221800 17013KT P6SM VCSH BKN050 BKN100
     FM230000 17010KT P6SM -RA SCT025 BKN050=



000
FTUS43 KDLH 220500
TAFHYR
TAF
KHYR 220534Z 2206/2306 15005KT P6SM SKC
     FM221600 17012KT P6SM SKC
     FM222200 18007KT P6SM BKN100
     FM230200 18010KT P6SM VCSH BKN070=



000
FTUS43 KDLH 220500
TAFBRD
TAF
KBRD 220534Z 2206/2306 15008KT P6SM SKC
     FM221300 16013G19KT P6SM BKN250
     FM221800 16016G23KT P6SM VCSH BKN050
     FM230200 17010KT P6SM -RA SCT025 BKN050=



000
FTUS43 KDLH 212300
TAFINL
TAF
KINL 212335Z 2200/2224 14010KT P6SM SKC
     FM221400 15012G18KT P6SM BKN250
     FM221800 17013KT P6SM VCSH BKN050 BKN100=



000
FTUS43 KDLH 212300
TAFBRD
TAF
KBRD 212335Z 2200/2224 14008KT P6SM SKC
     FM221300 16013G19KT P6SM BKN250
     FM221800 17013G21KT P6SM VCSH BKN050=



000
FTUS43 KDLH 212300
TAFDLH
TAF
KDLH 212335Z 2200/2224 09011KT P6SM FEW018
     FM220500 14007KT P6SM FEW250
     FM221700 16015KT P6SM SCT250
     FM222100 15013KT P6SM VCSH BKN100=



000
FTUS43 KDLH 212300
TAFHYR
TAF
KHYR 212335Z 2200/2224 09004KT P6SM SKC
     FM221600 17012KT P6SM SKC
     FM222200 18007KT P6SM BKN100=



000
FTUS43 KDLH 211900 AAA
TAFDLH
TAF AMD
KDLH 211946Z 2120/2218 10014KT P6SM SCT018
     FM220500 14007KT P6SM FEW250
     FM221700 16015KT P6SM SCT250=



000
FTUS43 KDLH 211900 AAA
TAFDLH
TAF AMD
KDLH 211925Z 2119/2218 11014KT P6SM BKN016
     FM212000 11030KT P6SM SCT016
     FM220500 14007KT P6SM FEW015
     FM221700 16015KT P6SM SCT250=



000
FTUS43 KDLH 211900 AAA
TAFINL
TAF AMD
KINL 211925Z 2119/2218 15015G22KT P6SM SCT021
     FM212300 15010KT P6SM SCT025
     FM221400 15012G18KT P6SM BKN250=



000
FTUS43 KDLH 211700
TAFHYR
TAF
KHYR 211735Z 2118/2218 09008KT P6SM SCT021
     FM212300 15005KT P6SM SKC
     FM221600 17012KT P6SM SKC=



000
FTUS43 KDLH 211700
TAFBRD
TAF
KBRD 211735Z 2118/2218 15011KT P6SM FEW025
     FM220000 15010KT P6SM SKC
     FM221300 16013G19KT P6SM BKN250=



000
FTUS43 KDLH 211700
TAFINL
TAF
KINL 211735Z 2118/2218 15012G17KT P6SM SCT021
     FM212300 15010KT P6SM SCT025
     FM221400 15012G18KT P6SM BKN250=



000
FTUS43 KDLH 211700
TAFDLH
TAF
KDLH 211735Z 2118/2218 11013KT P6SM OVC014
     FM212000 11010KT P6SM SCT015
     FM220500 14007KT P6SM FEW015
     FM221700 16015KT P6SM SCT250=



000
FTUS43 KDLH 211600 AAC
TAFINL
TAF AMD
KINL 211650Z 2117/2212 15009G16KT P6SM BKN021
     FM220100 15010KT P6SM SKC=



000
FTUS43 KDLH 211600 AAA
TAFDLH
TAF AMD
KDLH 211650Z 2117/2212 11010KT P6SM OVC014
     FM212000 11010KT P6SM SCT015
     FM220500 14007KT P6SM FEW015=



000
FTUS43 KDLH 211600 AAB
TAFHYR
TAF AMD
KHYR 211610Z 2116/2212 12008KT P6SM OVC019
     FM211900 12009KT P6SM SCT019
     FM220500 15005KT P6SM SKC=



000
FTUS43 KDLH 211600 AAB
TAFHYR
TAF AMD
KHYR 211610Z 2116/2212 12008KT P6SM OVC019
     FM211900 12009KT P6SM SCT019
     FM220500 15005KT P6SM SKC=



000
FTUS43 KDLH 211500 AAD
TAFBRD
TAF AMD
KBRD 211559Z 2116/2212 13011G18KT P6SM SKC
     FM211800 14012G20KT P6SM SKC
     FM220000 15010KT P6SM SKC=



000
FTUS43 KDLH 211500 AAD
TAFBRD
TAF AMD
KBRD 211559Z 2116/2212 13011G18KT P6SM SKC
     FM211800 14012G20KT P6SM SKC
     FM220000 15010KT P6SM SKC=



000
FTUS43 KDLH 211500 AAB
TAFINL
TAF AMD
KINL 211500Z 2115/2212 15007KT P6SM BKN020
      TEMPO 2115/2116 SCT020
     FM211600 15009KT P6SM SCT025
     FM212000 15011G18KT P6SM SKC
     FM220100 15010KT P6SM SKC=



000
FTUS43 KDLH 211400 AAA
TAFHYR
TAF AMD
KHYR 211414Z 2114/2212 07006KT P6SM OVC017
     FM211600 11006KT P6SM BKN025
     FM211800 11007KT P6SM SKC
     FM220500 15005KT P6SM SKC=



000
FTUS43 KDLH 211400 AAC
TAFBRD
TAF AMD
KBRD 211414Z 2114/2212 13008KT P6SM SKC
     FM211800 14012G20KT P6SM SKC
     FM220000 15010KT P6SM SKC=



000
FTUS43 KDLH 211300 AAB
TAFBRD
TAF AMD
KBRD 211332Z 2114/2212 00000KT 4SM BR SKC
     FM211420 VRB02KT P6SM SKC
     FM211500 14008G15KT P6SM SCT025
     FM211800 14012G20KT P6SM SKC
     FM220000 15010KT P6SM SKC=



000
FTUS43 KDLH 211200 AAA
TAFINL
TAF AMD
KINL 211233Z 2113/2212 14005KT P6SM SCT018
      TEMPO 2114/2116 BKN018
     FM211600 15009KT P6SM SCT025
     FM212000 15011G18KT P6SM SKC
     FM220100 15010KT P6SM SKC=



000
FTUS43 KDLH 211200 AAA
TAFBRD
TAF AMD
KBRD 211218Z 2112/2212 00000KT 4SM BR SKC
      TEMPO 2112/2114 3/4SM BR
     FM211400 VRB02KT P6SM SKC
     FM211500 14008G15KT P6SM SCT025
     FM211800 14012G20KT P6SM SKC
     FM220000 15010KT P6SM SKC=



000
FTUS43 KDLH 211100
TAFHYR
TAF
KHYR 211120Z 2112/2212 07006KT P6SM OVC020
     FM211600 11006KT P6SM BKN025
     FM211800 11007KT P6SM SKC
     FM220500 15005KT P6SM SKC=



000
FTUS43 KDLH 211100
TAFINL
TAF
KINL 211120Z 2112/2212 14005KT P6SM OVC015
      TEMPO 2112/2114 FEW015
     FM211600 15009KT P6SM SCT025
     FM212000 15011G18KT P6SM SKC
     FM220100 15010KT P6SM SKC=



000
FTUS43 KDLH 211100
TAFBRD
TAF
KBRD 211120Z 2112/2212 00000KT 4SM BR SKC
      TEMPO 2112/2113 P6SM NSW
     FM211300 VRB02KT P6SM SKC
     FM211500 14008G15KT P6SM SCT025
     FM211800 14012G20KT P6SM SKC
     FM220000 15010KT P6SM SKC=



000
FTUS43 KDLH 211100
TAFDLH
TAF
KDLH 211120Z 2112/2212 11009KT P6SM OVC015
     FM211800 11010KT P6SM SCT015
     FM220500 14007KT P6SM FEW015=



000
FTUS43 KDLH 211100
TAFINL
TAF
KINL 211120Z 2112/2212 14005KT P6SM OVC015
      TEMPO 2112/2114 FEW015
     FM211600 15009KT P6SM SCT025
     FM212000 15011G18KT P6SM SKC
     FM220100 15010KT P6SM SKC=



000
FTUS43 KDLH 211100
TAFHYR
TAF
KHYR 211120Z 2112/2212 07006KT P6SM OVC020
     FM211600 11006KT P6SM BKN025
     FM211800 11007KT P6SM SKC
     FM220500 15005KT P6SM SKC=



000
FTUS43 KDLH 211100
TAFBRD
TAF
KBRD 211120Z 2112/2212 00000KT 4SM BR SKC
      TEMPO 2112/2113 P6SM NSW
     FM211300 VRB02KT P6SM SKC
     FM211500 14008G15KT P6SM SCT025
     FM211800 14012G20KT P6SM SKC
     FM220000 15010KT P6SM SKC=



000
FTUS43 KDLH 211100
TAFDLH
TAF
KDLH 211120Z 2112/2212 11009KT P6SM OVC015
     FM211800 11010KT P6SM SCT015
     FM220500 14007KT P6SM FEW015=



000
FTUS43 KDLH 211000 AAA
TAFHYR
TAF AMD
KHYR 211031Z 2111/2206 06005KT P6SM OVC020
     FM211600 11006KT P6SM BKN025
     FM211800 11007KT P6SM SKC
     FM220500 15005KT P6SM SKC=



000
FTUS43 KDLH 211000 AAA
TAFHYR
TAF AMD
KHYR 211031Z 2111/2206 06005KT P6SM OVC020
     FM211600 11006KT P6SM BKN025
     FM211800 11007KT P6SM SKC
     FM220500 15005KT P6SM SKC=



000
FTUS43 KDLH 211000 AAB
TAFBRD
TAF AMD
KBRD 211027Z 2110/2206 00000KT 1 1/2SM BR SKC
      TEMPO 2110/2112 5SM BR SKC
     FM211200 VRB02KT P6SM SKC
     FM211500 14008G15KT P6SM SCT025
     FM211800 14012G20KT P6SM SKC
     FM220000 15010KT P6SM SKC=



000
FTUS43 KDLH 211000 AAB
TAFBRD
TAF AMD
KBRD 211027Z 2110/2206 00000KT 1 1/2SM BR SKC
      TEMPO 2110/2112 5SM BR SKC
     FM211200 VRB02KT P6SM SKC
     FM211500 14008G15KT P6SM SCT025
     FM211800 14012G20KT P6SM SKC
     FM220000 15010KT P6SM SKC=



000
FTUS43 KDLH 211000 AAA
TAFINL
TAF AMD
KINL 211026Z 2110/2206 14006KT P6SM OVC015
      TEMPO 2111/2113 FEW015
     FM211600 15009KT P6SM SCT025
     FM212000 15011G18KT P6SM SKC
     FM220100 15010KT P6SM SKC=



000
FTUS43 KDLH 211000 AAA
TAFINL
TAF AMD
KINL 211026Z 2110/2206 14006KT P6SM OVC015
      TEMPO 2111/2113 FEW015
     FM211600 15009KT P6SM SCT025
     FM212000 15011G18KT P6SM SKC
     FM220100 15010KT P6SM SKC=



000
FTUS43 KDLH 211000 AAA
TAFBRD
TAF AMD
KBRD 211019Z 2110/2206 00000KT P6SM SKC
      TEMPO 2111/2113 4SM BR SKC
     FM211500 14008G15KT P6SM SCT025
     FM211800 14012G20KT P6SM SKC
     FM220000 15010KT P6SM SKC=



000
FTUS43 KDLH 211000 AAA
TAFDLH
TAF AMD
KDLH 211000Z 2110/2206 11010KT P6SM OVC012
     FM211800 11010KT P6SM SCT015
     FM220500 14007KT P6SM FEW015=



000
FTUS43 KDLH 211000 AAA
TAFDLH
TAF AMD
KDLH 211000Z 2110/2206 11010KT P6SM OVC012
     FM211800 11010KT P6SM SCT015
     FM220500 14007KT P6SM FEW015=



000
FTUS43 KDLH 210700 AAA
TAFDLH
TAF AMD
KDLH 210710Z 2107/2206 09009KT P6SM OVC012
      TEMPO 2109/2113 OVC007
     FM211800 10011KT P6SM SCT015=



000
FTUS43 KDLH 210500
TAFBRD
TAF
KBRD 210520Z 2106/2206 05003KT 4SM BR SKC
      TEMPO 2106/2110 1/2SM FG SCT004
     FM211000 05003KT 3SM BR SKC
      TEMPO 2110/2113 1/2SM FG SCT004
     FM211700 14012KT P6SM SCT035=



000
FTUS43 KDLH 210500
TAFHYR
TAF
KHYR 210520Z 2106/2206 05006KT P6SM OVC035
     FM211100 05005KT P6SM OVC015
     FM211600 12006KT P6SM SCT015=



000
FTUS43 KDLH 210500
TAFDLH
TAF
KDLH 210520Z 2106/2206 05005KT P6SM OVC025
     FM210900 09006KT P6SM OVC015
      TEMPO 2109/2113 OVC007
     FM211800 10011KT P6SM SCT015=



000
FTUS43 KDLH 210500
TAFINL
TAF
KINL 210520Z 2106/2206 11007KT P6SM OVC021
     FM211600 15009KT P6SM SCT025=



000
FTUS43 KDLH 210400 AAA
TAFBRD
TAF AMD
KBRD 210405Z 2104/2124 05003KT P6SM SKC
      TEMPO 2104/2108 3SM BR SCT004
     FM211700 14012KT P6SM SCT035=



000
FTUS43 KDLH 210400 AAA
TAFBRD
TAF AMD
KBRD 210405Z 2104/2124 05003KT P6SM SKC
      TEMPO 2104/2108 3SM BR SCT004
     FM211700 14012KT P6SM SCT035=



000
FTUS43 KDLH 210400 AAA
TAFINL
TAF AMD
KINL 210404Z 2104/2124 11007KT P6SM OVC021
     FM211600 15009KT P6SM SCT025=



000
FTUS43 KDLH 210400 AAA
TAFINL
TAF AMD
KINL 210404Z 2104/2124 11007KT P6SM OVC021
     FM211600 15009KT P6SM SCT025=



000
FTUS43 KDLH 210300 AAA
TAFDLH
TAF AMD
KDLH 210326Z 2103/2124 05005KT P6SM OVC025
     FM210900 09006KT P6SM OVC015
     FM211600 10011KT P6SM SCT015=



000
FTUS43 KDLH 210100 AAB
TAFHYR
TAF AMD
KHYR 210154Z 2102/2124 01004KT P6SM OVC035
     FM210500 05006KT P6SM OVC025
     FM211100 05005KT P6SM OVC015
     FM211600 12006KT P6SM SCT015=



000
FTUS43 KDLH 210100 AAB
TAFHYR
TAF AMD
KHYR 210154Z 2102/2124 01004KT P6SM OVC035
     FM210500 05006KT P6SM OVC025
     FM211100 05005KT P6SM OVC015
     FM211600 12006KT P6SM SCT015=



000
FTUS43 KDLH 202300 AAA
TAFHYR
TAF AMD
KHYR 202348Z 2100/2124 VRB06KT P6SM BKN026 OVC035
     FM210500 05006KT P6SM OVC015
     FM211100 05005KT P6SM OVC008
     FM211600 12006KT P6SM SCT015=



000
FTUS43 KDLH 202300
TAFBRD
TAF
KBRD 202338Z 2100/2124 03009KT P6SM SKC
     FM211700 14012KT P6SM SCT035=



000
FTUS43 KDLH 202300
TAFHYR
TAF
KHYR 202338Z 2100/2124 VRB03KT P6SM OVC035
     FM210500 05006KT P6SM OVC015
     FM211100 05005KT P6SM OVC008
     FM211600 12006KT P6SM SCT015=



000
FTUS43 KDLH 202300
TAFDLH
TAF
KDLH 202338Z 2100/2124 36007KT P6SM OVC024
     FM210300 06005KT P6SM OVC015
     FM210900 09006KT P6SM OVC009
     FM211600 10011KT P6SM SCT015=



000
FTUS43 KDLH 202300
TAFINL
TAF
KINL 202338Z 2100/2124 03004KT P6SM OVC025
     FM210400 10004KT P6SM SCT025
     FM211600 15009KT P6SM SCT025=



000
FTUS43 KDLH 201900 AAA
TAFBRD
TAF AMD
KBRD 201924Z 2019/2118 35009KT P6SM SCT022
     FM210000 VRB03KT P6SM SKC
     FM211700 14010KT P6SM SCT035=



000
FTUS43 KDLH 201900 AAA
TAFINL
TAF AMD
KINL 201906Z 2019/2118 02008KT P6SM OVC024
     FM210400 10004KT P6SM BKN025
     FM211600 15009KT P6SM SCT025=



000
FTUS43 KDLH 201700
TAFHYR
TAF
KHYR 201737Z 2018/2118 35006KT P6SM BKN040
     FM210100 03004KT P6SM BKN025
     FM210500 05006KT P6SM OVC015
     FM211100 05005KT P6SM OVC008=



000
FTUS43 KDLH 201700
TAFINL
TAF
KINL 201737Z 2018/2118 36009KT P6SM OVC022
     FM201900 01006KT P6SM SCT025 BKN035
     FM210400 10004KT P6SM BKN025
     FM211600 15009KT P6SM SCT025=



000
FTUS43 KDLH 201700
TAFDLH
TAF
KDLH 201737Z 2018/2118 31007KT P6SM OVC025
      TEMPO 2018/2019 OVC015
     FM202000 36009KT P6SM BKN025
     FM210000 03006KT P6SM OVC025
     FM210300 06005KT P6SM OVC015
     FM210900 09006KT P6SM OVC009=



000
FTUS43 KDLH 201700
TAFBRD
TAF
KBRD 201737Z 2018/2118 35009KT P6SM SCT022
      TEMPO 2019/2021 BKN025
     FM210000 VRB03KT P6SM SKC
     FM211700 14010KT P6SM SCT035=



000
FTUS43 KDLH 201700 AAB
TAFINL
TAF AMD
KINL 201701Z 2017/2112 35010KT P6SM BKN025
     FM201900 36009KT P6SM BKN035
     FM202100 02007KT P6SM SCT040
     FM210000 VRB02KT P6SM SCT030=



000
FTUS43 KDLH 201700 AAC
TAFDLH
TAF AMD
KDLH 201700Z 2017/2112 33008KT P6SM SCT012 OVC035
      TEMPO 2017/2019 BKN012
     FM201900 35011KT P6SM SCT040
     FM202300 02005KT P6SM SKC
     FM210600 08007KT P6SM OVC015=



000
FTUS43 KDLH 201500 AAB
TAFDLH
TAF AMD
KDLH 201556Z 2016/2112 33008KT P6SM OVC025
     FM201700 34012KT P6SM BKN035
     FM201900 35011KT P6SM SCT040
     FM202300 02005KT P6SM SKC
     FM210600 08007KT P6SM OVC015=



000
FTUS43 KDLH 201500 AAC
TAFHYR
TAF AMD
KHYR 201507Z 2015/2112 34004KT P6SM BKN035
     FM201900 35008KT P6SM BKN035
     FM210000 01002KT P6SM BKN035=



000
FTUS43 KDLH 201400 AAA
TAFDLH
TAF AMD
KDLH 201447Z 2015/2112 33008KT P6SM SCT035
     FM201700 34012KT P6SM BKN035
     FM201900 35011KT P6SM SCT040
     FM202300 02005KT P6SM SKC
     FM210600 08007KT P6SM OVC015=



000
FTUS43 KDLH 201300 AAA
TAFINL
TAF AMD
KINL 201324Z 2013/2112 33007KT P6SM BKN025
     FM201700 36009KT P6SM BKN035
     FM202100 02007KT P6SM SCT040
     FM210000 VRB02KT P6SM SCT030=



    US Dept of Commerce
    National Oceanic and Atmospheric Administration
    National Weather Service
    1325 East West Highway
    Silver Spring, MD 20910
    Page Author: NWS Internet Services Team
Disclaimer
Information Quality
Credits
Glossary
Privacy Policy
Freedom of Information Act (FOIA)
About Us
Career Opportunities